Time;durP1;ratioP1;P1;durP2;ratioP2;P2;SDS_P1;SDS_P2;PMS_P1;PMS_P2;Temp;Humidity;BMP_temperature;BMP_pressure;BME280_temperature;BME280_humidity;BME280_pressure;Samples;Min_cycle;Max_cycle;Signal;HPM_P1;HPM_P2
2023/01/24 00:01:02;;;;;;;30.92;27.67;;;;;;;2.45;85.80;103692.22;5105189;28;20044;-59
2023/01/24 00:03:28;;;;;;;30.08;26.85;;;;;;;2.49;86.72;103693.16;5096695;28;20031;-59
2023/01/24 00:05:54;;;;;;;31.70;28.40;;;;;;;2.48;85.76;103684.38;5106706;28;20048;-59
2023/01/24 00:08:20;;;;;;;30.13;27.02;;;;;;;2.50;86.47;103687.94;5104255;28;20402;-59
2023/01/24 00:10:46;;;;;;;30.67;27.52;;;;;;;2.47;86.24;103694.84;5093300;28;20034;-59
2023/01/24 00:13:13;;;;;;;29.77;26.77;;;;;;;2.49;86.15;103695.78;5074747;28;20055;-59
2023/01/24 00:15:39;;;;;;;30.42;27.40;;;;;;;2.42;85.80;103686.03;5091813;28;20069;-60
2023/01/24 00:18:05;;;;;;;32.17;26.80;;;;;;;2.41;85.75;103690.41;5073842;28;20032;-61
2023/01/24 00:20:30;;;;;;;28.35;25.42;;;;;;;2.41;85.21;103692.13;5098965;28;20038;-60
2023/01/24 00:22:56;;;;;;;29.90;26.92;;;;;;;2.42;85.46;103692.16;5112421;28;20027;-60
2023/01/24 00:25:21;;;;;;;28.42;25.40;;;;;;;2.38;86.30;103690.38;5074243;28;20028;-60
2023/01/24 00:27:46;;;;;;;28.60;25.60;;;;;;;2.44;86.12;103693.09;5078537;28;20478;-60
2023/01/24 00:30:12;;;;;;;28.88;25.98;;;;;;;2.42;85.47;103691.28;5095343;28;20024;-60
2023/01/24 00:32:37;;;;;;;29.38;26.25;;;;;;;2.44;85.40;103682.59;5101231;28;20028;-60
2023/01/24 00:35:03;;;;;;;29.23;26.23;;;;;;;2.42;86.24;103672.91;5109432;28;20055;-60
2023/01/24 00:37:28;;;;;;;30.45;27.05;;;;;;;2.48;85.70;103673.88;5110200;28;20027;-60
2023/01/24 00:39:54;;;;;;;29.15;26.15;;;;;;;2.46;86.59;103672.09;5107839;28;20038;-60
2023/01/24 00:42:19;;;;;;;29.48;26.58;;;;;;;2.44;85.66;103676.41;5111224;28;20040;-59
2023/01/24 00:44:45;;;;;;;29.73;26.58;;;;;;;2.41;85.71;103673.75;5111209;28;20051;-60
2023/01/24 00:47:10;;;;;;;30.23;27.20;;;;;;;2.45;85.84;103665.06;5108342;28;20458;-60
2023/01/24 00:49:36;;;;;;;30.13;27.02;;;;;;;2.40;86.39;103667.63;5110987;28;20032;-60
2023/01/24 00:52:03;;;;;;;31.38;28.17;;;;;;;2.38;85.65;103671.97;5102360;28;20153;-60
2023/01/24 00:54:29;;;;;;;30.98;27.88;;;;;;;2.38;85.53;103658.84;5100473;28;20062;-60
2023/01/24 00:56:54;;;;;;;29.27;26.20;;;;;;;2.40;85.69;103669.38;5091807;28;20102;-60
2023/01/24 00:59:20;;;;;;;30.25;27.23;;;;;;;2.38;85.52;103661.47;5091348;28;20216;-60
2023/01/24 01:01:45;;;;;;;29.88;26.90;;;;;;;2.43;85.56;103661.53;5092150;28;20434;-60
2023/01/24 01:04:11;;;;;;;29.73;26.70;;;;;;;2.44;85.98;103669.44;5076617;28;20122;-59
2023/01/24 01:06:36;;;;;;;31.40;28.20;;;;;;;2.34;86.74;103658.75;5094969;28;20048;-59
2023/01/24 01:09:02;;;;;;;31.13;27.92;;;;;;;2.39;86.11;103660.59;5094290;28;20036;-60
2023/01/24 01:11:28;;;;;;;30.25;27.20;;;;;;;2.31;86.42;103663.97;5085503;28;20054;-59
2023/01/24 01:13:55;;;;;;;29.23;26.23;;;;;;;2.31;84.95;103654.34;5115242;28;20035;-59
2023/01/24 01:16:21;;;;;;;28.77;25.88;;;;;;;2.28;86.18;103660.41;5115187;28;20067;-59
2023/01/24 01:18:47;;;;;;;28.80;25.85;;;;;;;2.32;86.49;103652.59;5115052;28;20031;-59
2023/01/24 01:21:16;;;;;;;29.52;26.52;;;;;;;2.38;85.65;103655.31;5115330;28;20583;-59
2023/01/24 01:23:41;;;;;;;29.13;26.30;;;;;;;2.40;85.88;103658.84;5114463;28;20546;-59
2023/01/24 01:26:12;;;;;;;26.65;24.00;;;;;;;2.40;85.88;103656.22;5115535;28;20020;-60
2023/01/24 01:28:40;;;;;;;28.33;25.35;;;;;;;2.40;85.61;103646.59;5096626;28;20463;-59
2023/01/24 01:31:08;;;;;;;27.73;24.75;;;;;;;2.44;85.39;103652.78;5114943;28;20032;-59
2023/01/24 01:33:34;;;;;;;27.48;24.52;;;;;;;2.35;86.06;103650.88;5096413;28;20019;-59
2023/01/24 01:35:59;;;;;;;27.65;24.77;;;;;;;2.37;84.80;103662.31;5096682;28;20030;-59
2023/01/24 01:38:27;;;;;;;26.98;24.15;;;;;;;2.40;85.24;103664.13;5096540;28;20055;-59
2023/01/24 01:40:53;;;;;;;28.10;25.23;;;;;;;2.35;85.43;103664.03;5114462;28;20530;-59
2023/01/24 01:43:23;;;;;;;27.25;24.45;;;;;;;2.34;85.89;103656.13;5115049;28;20359;-59
2023/01/24 01:45:59;;;;;;;27.30;24.60;;;;;;;2.38;85.96;103656.22;5109426;28;20459;-59
2023/01/24 01:48:30;;;;;;;27.20;24.50;;;;;;;2.34;85.09;103657.00;5114914;28;20027;-59
2023/01/24 01:51:16;;;;;;;27.08;24.30;;;;;;;2.42;85.16;103654.53;5114783;28;20024;-60
2023/01/24 01:54:03;;;;;;;26.98;24.25;;;;;;;2.42;84.99;103657.16;5113990;28;20024;-59
2023/01/24 01:56:39;;;;;;;27.52;24.63;;;;;;;2.40;85.15;103664.13;5114695;28;20027;-59
2023/01/24 01:59:11;;;;;;;26.95;24.13;;;;;;;2.40;85.36;103664.13;5114373;28;20495;-60
2023/01/24 02:01:37;;;;;;;27.00;24.30;;;;;;;2.36;84.92;103652.69;5114311;28;20019;-59
2023/01/24 02:04:15;;;;;;;27.45;24.73;;;;;;;2.39;84.83;103660.59;5114382;28;20027;-60
2023/01/24 02:06:45;;;;;;;28.95;26.02;;;;;;;2.39;84.87;103650.09;5113963;28;20195;-59
2023/01/24 02:09:14;;;;;;;28.13;25.23;;;;;;;2.39;84.98;103649.22;5113976;28;20027;-59
2023/01/24 02:11:40;;;;;;;28.30;25.35;;;;;;;2.37;85.13;103648.31;5114680;28;20034;-59
2023/01/24 02:16:54;;;;;;;26.92;24.10;;;;;;;2.32;85.26;103647.34;5114106;28;20394;-59
2023/01/24 02:19:50;;;;;;;29.08;26.08;;;;;;;2.33;85.81;103644.75;5113195;28;20023;-59
2023/01/24 02:22:36;;;;;;;28.75;25.85;;;;;;;2.37;85.14;103651.81;5113920;28;20024;-59
2023/01/24 02:25:39;;;;;;;28.35;25.35;;;;;;;2.34;85.47;103641.25;5113581;28;20035;-59
2023/01/24 02:28:06;;;;;;;28.55;25.58;;;;;;;2.36;85.79;103651.81;5094978;28;20112;-59
2023/01/24 02:30:31;;;;;;;29.60;26.50;;;;;;;2.36;86.06;103649.19;5109986;28;20024;-59
2023/01/24 02:32:57;;;;;;;30.17;26.98;;;;;;;2.34;85.63;103646.50;5097505;28;20576;-59
2023/01/24 02:35:32;;;;;;;28.55;25.50;;;;;;;2.30;85.99;103647.31;5113319;28;20020;-59
2023/01/24 02:37:59;;;;;;;30.20;27.10;;;;;;;2.32;86.27;103645.59;5100907;28;20058;-59
2023/01/24 02:40:27;;;;;;;31.13;27.73;;;;;;;2.33;85.91;103649.13;5094991;28;20024;-59
2023/01/24 02:42:57;;;;;;;31.20;27.73;;;;;;;2.26;86.58;103649.03;5083460;28;20032;-59
2023/01/24 02:45:27;;;;;;;;;;;;;;;2.36;86.58;103650.06;5093354;28;20466;-59
2023/01/24 02:47:54;;;;;;;30.40;27.20;;;;;;;2.21;86.45;103637.56;5093278;28;19946;-59
2023/01/24 02:50:22;;;;;;;31.90;28.40;;;;;;;2.20;86.62;103648.00;5092615;28;20103;-59
2023/01/24 02:55:33;;;;;;;34.03;30.33;;;;;;;2.21;86.81;103653.31;5097410;28;20043;-59
2023/01/24 02:58:10;;;;;;;34.05;30.42;;;;;;;2.22;87.33;103651.56;5093287;28;20034;-59
2023/01/24 03:00:41;;;;;;;33.17;29.70;;;;;;;2.21;87.00;103647.19;5092788;28;20035;-59
2023/01/24 03:03:08;;;;;;;31.73;28.33;;;;;;;2.21;87.43;103652.44;5074928;28;20379;-59
2023/01/24 03:05:56;;;;;;;32.08;28.73;;;;;;;2.26;87.31;103646.41;5074048;28;20044;-59
2023/01/24 03:08:27;;;;;;;31.38;28.08;;;;;;;2.24;86.86;103648.09;5092655;28;20043;-59
2023/01/24 03:10:53;;;;;;;31.20;27.75;;;;;;;2.21;86.29;103639.31;5092823;28;20056;-59
2023/01/24 03:35:16;;;;;;;30.70;27.50;;;;;;;2.15;86.23;103645.31;5092498;28;20039;-59
2023/01/24 03:40:28;;;;;;;30.50;27.20;;;;;;;2.09;86.24;103633.81;5103053;28;20030;-59
2023/01/24 03:42:53;;;;;;;31.08;27.77;;;;;;;2.05;86.32;103632.88;5091982;28;20024;-59
2023/01/24 03:45:24;;;;;;;31.00;27.60;;;;;;;2.10;86.50;103636.47;5092432;28;20483;-59
2023/01/24 03:47:54;;;;;;;30.67;27.38;;;;;;;2.03;86.99;103634.63;5073966;28;20031;-59
2023/01/24 03:53:09;;;;;;;32.33;28.60;;;;;;;2.10;86.95;103639.09;5095210;28;20043;-59
2023/01/24 03:55:37;;;;;;;31.60;28.17;;;;;;;2.07;86.91;103636.44;5110380;28;20023;-59
2023/01/24 03:58:03;;;;;;;31.40;28.02;;;;;;;2.12;87.08;103639.13;5101937;28;20099;-59
2023/01/24 04:00:29;;;;;;;30.58;27.40;;;;;;;2.07;87.05;103633.81;5090022;28;20466;-59
2023/01/24 04:02:55;;;;;;;31.38;28.05;;;;;;;2.09;87.75;103639.06;5093472;28;20107;-59
2023/01/24 04:05:20;;;;;;;31.27;27.98;;;;;;;2.06;87.64;103637.31;5092579;28;20011;-59
2023/01/24 04:07:48;;;;;;;31.77;28.33;;;;;;;2.04;87.22;103636.38;5093055;28;20467;-59
2023/01/24 04:10:14;;;;;;;30.48;27.27;;;;;;;2.05;87.29;103643.38;5111220;28;20478;-59
2023/01/24 04:12:41;;;;;;;30.70;27.23;;;;;;;2.02;87.23;103632.84;5110889;28;20027;-59
2023/01/24 04:15:08;;;;;;;30.67;27.38;;;;;;;2.01;86.80;103634.56;5093409;28;20058;-59
2023/01/24 04:17:33;;;;;;;32.17;28.77;;;;;;;2.06;87.31;103632.06;5098291;28;20032;-59
2023/01/24 04:19:58;;;;;;;31.67;28.27;;;;;;;2.08;87.33;103642.56;5109140;28;20395;-59
2023/01/24 04:22:24;;;;;;;31.45;27.17;;;;;;;2.13;88.35;103641.78;5093360;28;20031;-59
2023/01/24 04:24:49;;;;;;;31.20;27.88;;;;;;;2.18;87.85;103636.63;5111801;28;20015;-59
2023/01/24 04:27:15;;;;;;;30.05;26.60;;;;;;;2.19;87.35;103638.38;5110265;28;20012;-59
2023/01/24 04:29:40;;;;;;;31.00;27.50;;;;;;;2.16;87.71;103633.97;5111072;28;20055;-59
2023/01/24 04:32:06;;;;;;;30.83;27.73;;;;;;;2.15;87.90;103640.06;5111375;28;20028;-59
2023/01/24 04:34:32;;;;;;;31.42;28.15;;;;;;;2.20;87.41;103632.25;5111233;28;20024;-59
2023/01/24 04:36:57;;;;;;;31.52;28.17;;;;;;;2.19;88.09;103644.50;5094579;28;20088;-59
2023/01/24 04:39:25;;;;;;;29.95;26.67;;;;;;;2.17;88.33;103647.97;5115526;28;20026;-59
2023/01/24 04:41:50;;;;;;;30.25;27.17;;;;;;;2.16;88.01;103640.97;5110765;28;20027;-59
2023/01/24 04:44:16;;;;;;;32.30;28.95;;;;;;;2.14;87.94;103645.28;5114928;28;20497;-59
2023/01/24 04:46:41;;;;;;;30.17;26.95;;;;;;;2.09;87.97;103641.69;5095518;28;20080;-59
2023/01/24 04:49:07;;;;;;;30.98;27.67;;;;;;;1.98;87.60;103628.41;5115116;28;20027;-59
2023/01/24 04:51:32;;;;;;;30.27;26.98;;;;;;;2.05;87.02;103644.25;5113668;28;20040;-59
2023/01/24 04:53:58;;;;;;;30.20;26.33;;;;;;;2.05;86.61;103646.00;5115453;28;20019;-59
2023/01/24 04:56:25;;;;;;;30.85;27.50;;;;;;;2.02;87.39;103641.59;5096042;28;20024;-59
2023/01/24 04:58:51;;;;;;;31.00;27.55;;;;;;;2.11;87.21;103648.75;5115002;28;20375;-59
2023/01/24 05:01:16;;;;;;;29.60;26.48;;;;;;;2.08;87.46;103647.81;5096627;28;20030;-59
2023/01/24 05:03:41;;;;;;;31.23;27.92;;;;;;;2.16;87.69;103651.47;5096625;28;20027;-59
2023/01/24 05:06:07;;;;;;;30.25;27.15;;;;;;;2.12;86.64;103647.00;5093614;28;20223;-59
2023/01/24 05:08:32;;;;;;;28.02;25.23;;;;;;;2.09;86.32;103646.94;5102014;28;20031;-59
2023/01/24 05:11:04;;;;;;;30.50;27.40;;;;;;;2.07;86.66;103636.44;5109521;28;20032;-60
2023/01/24 05:13:30;;;;;;;31.13;27.90;;;;;;;2.13;87.28;103652.28;5108897;28;20047;-60
2023/01/24 05:15:55;;;;;;;31.88;28.58;;;;;;;2.05;87.79;103641.63;5096709;28;20027;-59
2023/01/24 05:18:21;;;;;;;31.55;28.30;;;;;;;2.20;87.48;103654.13;5076708;28;20123;-59
2023/01/24 05:20:46;;;;;;;31.85;28.55;;;;;;;2.20;87.50;103654.13;5094842;28;20020;-59
2023/01/24 05:23:12;;;;;;;29.52;26.48;;;;;;;2.15;87.76;103657.56;5076637;28;20072;-59
2023/01/24 05:25:38;;;;;;;31.00;27.58;;;;;;;2.15;87.98;103653.22;5094602;28;20031;-59
2023/01/24 05:28:03;;;;;;;31.52;28.33;;;;;;;2.12;87.39;103662.75;5114786;28;20458;-59
2023/01/24 05:30:29;;;;;;;32.72;28.17;;;;;;;2.11;87.63;103661.00;5094637;28;20035;-59
2023/01/24 05:32:58;;;;;;;30.85;27.73;;;;;;;2.07;88.12;103659.19;5077193;28;20062;-59
2023/01/24 05:35:24;;;;;;;30.70;27.50;;;;;;;2.06;87.63;103655.69;5096589;28;20020;-59
2023/01/24 05:37:50;;;;;;;32.20;28.90;;;;;;;2.08;88.06;103659.19;5096654;28;20039;-59
2023/01/24 05:40:16;;;;;;;31.58;28.27;;;;;;;2.07;87.87;103656.56;5096060;28;20386;-59
2023/01/24 05:42:46;;;;;;;31.33;28.13;;;;;;;2.06;87.96;103660.91;5114298;28;20027;-59
2023/01/24 05:45:12;;;;;;;31.00;27.75;;;;;;;2.05;87.49;103657.38;5094135;28;20034;-59
2023/01/24 05:47:37;;;;;;;30.30;27.10;;;;;;;2.08;87.71;103666.19;5093969;28;20019;-59
2023/01/24 05:50:03;;;;;;;30.37;27.17;;;;;;;1.99;87.42;103672.16;5093460;28;20145;-59
2023/01/24 05:52:28;;;;;;;31.57;28.37;;;;;;;1.92;87.94;103659.78;5076287;28;20028;-59
2023/01/24 05:54:53;;;;;;;29.47;26.37;;;;;;;1.90;87.16;103665.00;5093575;28;20035;-59
2023/01/24 05:57:21;;;;;;;29.75;26.55;;;;;;;1.88;87.42;103671.94;5076018;28;20035;-59
2023/01/24 05:59:46;;;;;;;29.58;26.58;;;;;;;1.90;87.67;103674.59;5094320;28;20038;-59
2023/01/24 06:02:12;;;;;;;30.13;27.02;;;;;;;1.92;87.35;103678.16;5094027;28;20032;-59
2023/01/24 06:04:37;;;;;;;30.07;26.90;;;;;;;1.99;87.56;103683.53;5092802;28;20027;-59
2023/01/24 06:07:04;;;;;;;31.97;28.67;;;;;;;1.94;88.21;103679.03;5114074;28;20052;-60
2023/01/24 06:09:29;;;;;;;30.57;27.50;;;;;;;1.97;88.46;103687.88;5113904;28;20084;-59
2023/01/24 06:11:55;;;;;;;30.10;27.08;;;;;;;1.99;88.39;103687.91;5114570;28;20061;-59
2023/01/24 06:14:20;;;;;;;30.75;27.60;;;;;;;1.97;88.50;103693.13;5095199;28;20023;-59
2023/01/24 06:16:47;;;;;;;28.95;25.88;;;;;;;1.95;87.59;103688.72;5113041;28;20463;-59
2023/01/24 06:19:15;;;;;;;28.27;25.37;;;;;;;1.93;87.45;103682.53;5093863;28;20020;-59
2023/01/24 06:22:21;;;;;;;28.87;25.97;;;;;;;1.96;87.72;103685.22;5095861;28;20077;-59
2023/01/24 06:24:46;;;;;;;28.92;26.02;;;;;;;1.87;87.94;103693.81;5079264;28;20051;-59
2023/01/24 06:27:12;;;;;;;28.30;25.33;;;;;;;1.89;87.22;103689.47;5109372;28;20062;-59
2023/01/24 06:29:38;;;;;;;26.27;23.67;;;;;;;1.89;87.12;103691.22;5106057;28;20432;-59
2023/01/24 06:32:06;;;;;;;28.87;25.90;;;;;;;1.93;87.49;103693.91;5104223;28;20360;-59
2023/01/24 06:34:40;;;;;;;29.60;26.60;;;;;;;1.92;86.97;103701.78;5103237;28;20024;-60
2023/01/24 06:37:18;;;;;;;28.30;25.33;;;;;;;1.94;87.04;103706.19;5102580;28;20027;-59
2023/01/24 06:39:53;;;;;;;27.43;24.63;;;;;;;1.88;87.55;103713.94;5107814;28;20456;-59
2023/01/24 06:42:21;;;;;;;26.57;23.77;;;;;;;1.88;87.75;103702.56;5102478;28;20471;-59
2023/01/24 06:44:47;;;;;;;28.90;25.90;;;;;;;1.87;88.30;103706.91;5090920;28;20031;-60
2023/01/24 06:47:14;;;;;;;28.17;25.37;;;;;;;1.88;88.40;103707.78;5092189;28;20008;-60
2023/01/24 06:49:39;;;;;;;29.67;26.58;;;;;;;1.80;87.74;103716.41;5092899;28;20081;-59
2023/01/24 06:52:05;;;;;;;29.83;26.83;;;;;;;1.84;88.24;103705.97;5105294;28;20015;-59
2023/01/24 06:54:32;;;;;;;29.95;26.80;;;;;;;1.78;88.43;103707.63;5112778;28;20020;-59
2023/01/24 06:56:57;;;;;;;29.58;26.52;;;;;;;1.86;88.36;103715.66;5113236;28;20043;-59
2023/01/24 06:59:25;;;;;;;29.20;26.10;;;;;;;1.84;88.70;103705.97;5110339;28;20020;-59
2023/01/24 07:01:50;;;;;;;30.40;27.33;;;;;;;1.81;88.65;103705.06;5074594;28;20548;-59
2023/01/24 07:04:16;;;;;;;29.90;26.83;;;;;;;1.73;88.32;103711.88;5092685;28;20012;-59
2023/01/24 07:06:42;;;;;;;31.63;28.23;;;;;;;1.72;88.10;103707.50;5074140;28;20048;-59
2023/01/24 07:09:08;;;;;;;31.00;27.70;;;;;;;1.69;88.34;103704.81;5083389;28;20028;-59
2023/01/24 07:11:34;;;;;;;32.08;28.75;;;;;;;1.79;88.51;103717.28;5097196;28;20020;-59
2023/01/24 07:14:00;;;;;;;29.90;26.75;;;;;;;1.80;88.17;103716.41;5105328;28;20419;-60
2023/01/24 07:16:25;;;;;;;33.92;29.15;;;;;;;1.70;88.46;103701.34;5094949;28;20039;-59
2023/01/24 07:18:51;;;;;;;32.57;28.93;;;;;;;1.80;88.72;103715.53;5074865;28;20024;-59
2023/01/24 07:21:16;;;;;;;31.63;28.27;;;;;;;1.77;88.68;103723.34;5074201;28;20024;-59
2023/01/24 07:23:46;;;;;;;31.52;28.27;;;;;;;1.77;88.74;103732.09;5092094;28;20103;-59
2023/01/24 07:26:12;;;;;;;;;;;;;;;1.91;88.51;103739.34;5105617;28;20054;-59
2023/01/24 07:28:38;;;;;;;30.10;26.85;;;;;;;1.89;89.15;103741.97;5112822;28;19957;-59
2023/01/24 07:31:04;;;;;;;31.13;27.77;;;;;;;1.79;89.10;103734.75;5092801;28;20031;-60
2023/01/24 07:33:29;;;;;;;29.70;26.50;;;;;;;1.74;88.96;103741.66;5097897;28;20103;-60
2023/01/24 07:35:55;;;;;;;31.20;28.00;;;;;;;1.72;89.60;103748.59;5112732;28;20057;-60
2023/01/24 07:38:20;;;;;;;29.23;26.27;;;;;;;1.59;89.09;103742.22;5088395;28;20055;-59
2023/01/24 07:40:46;;;;;;;32.20;28.70;;;;;;;1.62;88.96;103758.03;5096164;28;20024;-60
2023/01/24 07:43:12;;;;;;;31.87;28.57;;;;;;;1.57;88.95;103757.91;5109255;28;20425;-60
2023/01/24 07:45:38;;;;;;;32.40;28.95;;;;;;;1.64;89.23;103760.66;5109787;28;20074;-59
2023/01/24 07:48:06;;;;;;;31.20;27.90;;;;;;;1.68;88.74;103758.16;5109426;28;20046;-60
2023/01/24 07:50:31;;;;;;;31.98;28.55;;;;;;;1.64;88.68;103747.56;5081173;28;20041;-60
2023/01/24 07:52:58;;;;;;;31.02;27.63;;;;;;;1.62;88.69;103755.41;5078735;28;20020;-60
2023/01/24 07:55:26;;;;;;;34.20;30.65;;;;;;;1.58;89.58;103764.03;5086469;28;20020;-60
2023/01/24 07:57:58;;;;;;;32.88;29.48;;;;;;;1.63;89.73;103759.78;5104524;28;20031;-60
2023/01/24 08:00:23;;;;;;;32.40;29.10;;;;;;;1.56;88.96;103766.66;5092185;28;20466;-61
2023/01/24 08:02:50;;;;;;;31.75;28.55;;;;;;;1.58;89.38;103764.91;5094019;28;20122;-60
2023/01/24 08:05:15;;;;;;;32.60;29.23;;;;;;;1.64;89.33;103771.16;5111990;28;20019;-60
2023/01/24 08:07:43;;;;;;;31.30;28.10;;;;;;;1.66;88.82;103767.72;5106515;28;20085;-61
2023/01/24 08:10:11;;;;;;;31.40;27.92;;;;;;;1.68;88.68;103770.41;5091123;28;20360;-60
2023/01/24 08:12:39;;;;;;;32.15;28.50;;;;;;;1.66;88.80;103769.47;5102267;28;20024;-60
2023/01/24 08:15:06;;;;;;;32.88;29.38;;;;;;;1.59;88.50;103764.09;5111397;28;20483;-61
2023/01/24 08:17:31;;;;;;;31.13;27.88;;;;;;;1.54;88.22;103762.22;5111770;28;20490;-61
2023/01/24 08:19:57;;;;;;;33.47;29.98;;;;;;;1.62;88.15;103765.91;5107007;28;20116;-61
2023/01/24 08:22:26;;;;;;;32.75;29.30;;;;;;;1.60;88.20;103770.22;5104998;28;20111;-61
2023/01/24 08:24:51;;;;;;;33.70;30.13;;;;;;;1.66;88.94;103772.97;5110058;28;20479;-60
2023/01/24 08:27:17;;;;;;;33.50;29.90;;;;;;;1.62;89.00;103771.16;5092707;28;20019;-60
2023/01/24 08:29:44;;;;;;;37.88;30.98;;;;;;;1.67;88.86;103773.84;5111374;28;20466;-61
2023/01/24 08:32:10;;;;;;;32.63;29.10;;;;;;;1.66;88.97;103769.47;5111132;28;20035;-61
2023/01/24 08:34:35;;;;;;;32.95;29.42;;;;;;;1.68;88.68;103773.00;5092790;28;20027;-61
2023/01/24 08:37:00;;;;;;;32.63;29.17;;;;;;;1.69;89.06;103769.53;5081121;28;20491;-61
2023/01/24 08:39:26;;;;;;;32.80;28.88;;;;;;;1.73;88.98;103776.59;5089565;28;20073;-60
2023/01/24 08:41:51;;;;;;;32.80;29.40;;;;;;;1.71;88.83;103781.81;5106767;28;20023;-61
2023/01/24 08:44:17;;;;;;;32.50;29.10;;;;;;;1.67;88.39;103785.22;5092799;28;20023;-61
2023/01/24 08:46:42;;;;;;;31.48;28.27;;;;;;;1.65;88.26;103796.53;5111072;28;20099;-61
2023/01/24 08:49:10;;;;;;;32.23;28.93;;;;;;;1.67;87.87;103797.47;5111061;28;20023;-61
2023/01/24 08:51:38;;;;;;;31.63;28.23;;;;;;;1.69;87.49;103795.75;5086058;28;20051;-61
2023/01/24 08:54:06;;;;;;;32.07;28.63;;;;;;;1.67;87.34;103800.97;5087912;28;20023;-61
2023/01/24 08:56:33;;;;;;;31.73;28.37;;;;;;;1.62;87.81;103783.34;5080279;28;20390;-60
2023/01/24 08:58:59;;;;;;;31.55;27.77;;;;;;;1.67;87.81;103805.31;5072153;28;20023;-60
2023/01/24 09:01:26;;;;;;;31.77;28.35;;;;;;;1.69;87.54;103806.25;5110000;28;20038;-60
2023/01/24 09:03:54;;;;;;;31.15;27.83;;;;;;;1.67;87.56;103798.34;5111012;28;20517;-61
2023/01/24 09:06:20;;;;;;;31.90;28.50;;;;;;;1.67;86.91;103807.94;5109187;28;20039;-61
2023/01/24 09:08:45;;;;;;;30.93;27.57;;;;;;;1.60;87.86;103804.31;5110556;28;20356;-61
2023/01/24 09:11:11;;;;;;;31.75;28.35;;;;;;;1.62;87.46;103792.13;5111219;28;20023;-61
2023/01/24 09:13:36;;;;;;;30.20;26.92;;;;;;;1.61;87.37;103806.06;5092666;28;20041;-60
2023/01/24 09:16:02;;;;;;;30.57;27.27;;;;;;;1.64;87.50;103811.38;5089654;28;20359;-61
2023/01/24 09:18:27;;;;;;;30.42;27.25;;;;;;;1.62;88.23;103807.88;5101036;28;20024;-60
2023/01/24 09:20:53;;;;;;;30.97;27.57;;;;;;;1.60;88.19;103806.94;5106802;28;20123;-60
2023/01/24 09:23:18;;;;;;;30.87;27.67;;;;;;;1.69;87.41;103809.75;5092810;28;20027;-60
2023/01/24 09:25:52;;;;;;;32.55;29.15;;;;;;;1.76;87.93;103801.16;5114150;28;20462;-60
2023/01/24 09:28:19;;;;;;;31.40;28.00;;;;;;;1.74;87.15;103800.25;5112365;28;20012;-61
2023/01/24 09:30:47;;;;;;;30.23;26.93;;;;;;;1.78;87.70;103804.69;5112670;28;20034;-61
2023/01/24 09:33:12;;;;;;;30.30;26.50;;;;;;;1.79;87.88;103805.59;5112982;28;20546;-61
2023/01/24 09:35:38;;;;;;;30.75;27.58;;;;;;;1.68;86.34;103804.50;5113068;28;20106;-61
2023/01/24 09:38:03;;;;;;;31.90;25.95;;;;;;;1.70;86.49;103811.50;5114327;28;20047;-61
2023/01/24 09:40:51;;;;;;;27.95;25.15;;;;;;;1.71;85.61;103815.94;5090517;28;20490;-60
2023/01/24 09:43:40;;;;;;;28.67;25.60;;;;;;;1.73;85.66;103816.81;5092929;28;20031;-61
2023/01/24 09:46:22;;;;;;;28.02;25.00;;;;;;;1.72;85.71;103815.06;5080568;28;20015;-61
2023/01/24 09:48:53;;;;;;;27.65;24.73;;;;;;;1.71;85.52;103812.44;5111664;28;20966;-60
2023/01/24 09:51:25;;;;;;;29.70;26.48;;;;;;;1.69;85.30;103822.00;5093669;28;20092;-60
2023/01/24 09:53:55;;;;;;;28.10;25.20;;;;;;;1.69;85.16;103819.38;5101266;28;20039;-60
2023/01/24 09:56:30;;;;;;;27.80;24.88;;;;;;;1.74;84.97;103828.22;5107908;28;20039;-60
2023/01/24 09:59:20;;;;;;;27.75;24.90;;;;;;;1.64;85.65;103826.25;5104902;28;20099;-61
2023/01/24 10:01:50;;;;;;;27.67;24.77;;;;;;;1.61;85.01;103811.31;5107426;28;20020;-61
2023/01/24 10:04:15;;;;;;;;;;;;;;;1.79;85.25;103834.44;5086611;28;20106;-60
2023/01/24 10:06:55;;;;;;;27.45;24.65;;;;;;;1.74;84.87;103834.38;5075366;28;19963;-61
2023/01/24 10:09:41;;;;;;;28.58;25.52;;;;;;;1.80;84.67;103825.75;5098320;28;20036;-60
2023/01/24 10:12:12;;;;;;;27.57;24.67;;;;;;;1.78;84.51;103830.94;5102639;28;20024;-61
2023/01/24 10:15:13;;;;;;;26.95;23.58;;;;;;;1.77;84.53;103836.16;5098572;28;20483;-60
2023/01/24 10:17:38;;;;;;;27.65;24.67;;;;;;;1.72;84.82;103827.31;5090835;28;20068;-60
2023/01/24 10:20:36;;;;;;;28.13;25.13;;;;;;;1.80;85.15;103823.13;5097083;28;20086;-61
2023/01/24 10:23:20;;;;;;;27.58;24.75;;;;;;;1.74;84.52;103830.84;5052813;28;20043;-60
2023/01/24 10:25:51;;;;;;;28.08;25.13;;;;;;;1.79;85.05;103837.97;5102119;28;20066;-60
2023/01/24 10:28:43;;;;;;;26.40;23.60;;;;;;;1.82;84.57;103829.25;5114051;28;20030;-60
2023/01/24 10:31:14;;;;;;;28.13;24.55;;;;;;;1.88;84.34;103832.00;5110994;28;20039;-60
2023/01/24 10:33:47;;;;;;;26.23;23.52;;;;;;;1.89;83.86;103831.19;5112319;28;20471;-60
2023/01/24 10:36:27;;;;;;;27.85;25.00;;;;;;;1.89;84.15;103831.19;5102349;28;20038;-61
2023/01/24 10:38:52;;;;;;;26.58;23.77;;;;;;;1.86;83.85;103825.88;5092437;28;20097;-60
2023/01/24 10:41:24;;;;;;;24.70;22.23;;;;;;;1.90;83.84;103824.19;5075053;28;20027;-61
2023/01/24 10:43:55;;;;;;;26.08;23.35;;;;;;;1.86;84.10;103831.13;5093367;28;20475;-60
2023/01/24 10:46:49;;;;;;;26.50;23.75;;;;;;;1.96;84.32;103826.94;5093298;28;20042;-61
2023/01/24 10:49:23;;;;;;;27.15;24.27;;;;;;;1.92;84.41;103827.75;5093099;28;20024;-60
2023/01/24 10:52:11;;;;;;;27.55;24.75;;;;;;;1.86;85.16;103804.00;5074781;28;20882;-60
2023/01/24 10:54:51;;;;;;;26.42;23.70;;;;;;;1.94;84.89;103820.75;5092702;28;20051;-60
2023/01/24 10:57:38;;;;;;;27.60;24.67;;;;;;;1.93;84.36;103821.63;5093123;28;20471;-60
2023/01/24 11:00:05;;;;;;;25.50;22.98;;;;;;;1.85;83.76;103823.19;5076159;28;20043;-61
2023/01/24 11:02:34;;;;;;;26.67;23.95;;;;;;;1.89;84.32;103822.44;5074422;28;20066;-60
2023/01/24 11:05:02;;;;;;;25.52;22.98;;;;;;;1.92;83.63;103823.38;5092592;28;20016;-60
2023/01/24 11:07:38;;;;;;;25.35;22.85;;;;;;;1.94;83.25;103819.06;5092810;28;20044;-61
2023/01/24 11:10:43;;;;;;;26.08;23.38;;;;;;;1.98;84.03;103812.13;5092031;28;20035;-60
2023/01/24 11:13:40;;;;;;;24.58;22.15;;;;;;;2.01;84.91;103812.19;5092709;28;20020;-61
2023/01/24 11:16:19;;;;;;;26.00;23.40;;;;;;;2.02;84.65;103816.56;5072029;28;20028;-60
2023/01/24 11:19:04;;;;;;;26.83;24.23;;;;;;;2.00;83.81;103802.50;5074304;28;20028;-61
2023/01/24 11:21:33;;;;;;;26.65;24.00;;;;;;;1.97;84.58;103805.06;5092637;28;20078;-61
2023/01/24 11:24:04;;;;;;;24.63;22.17;;;;;;;2.03;83.80;103802.63;5074112;28;20081;-60
2023/01/24 11:26:34;;;;;;;26.13;23.33;;;;;;;2.00;84.20;103803.44;5092645;28;20035;-61
2023/01/24 11:29:08;;;;;;;26.42;23.73;;;;;;;1.99;84.33;103795.50;5092339;28;20024;-60
2023/01/24 11:31:38;;;;;;;24.35;21.90;;;;;;;1.93;84.46;103795.38;5073941;28;20024;-60
2023/01/24 11:34:26;;;;;;;24.55;22.05;;;;;;;1.93;84.59;103793.63;5102616;28;20057;-60
2023/01/24 11:37:04;;;;;;;25.40;22.83;;;;;;;1.93;84.14;103787.50;5112493;28;20036;-60
2023/01/24 11:39:41;;;;;;;24.40;21.85;;;;;;;1.91;85.07;103787.50;5112169;28;20031;-61
2023/01/24 11:42:19;;;;;;;24.63;22.15;;;;;;;1.97;84.77;103789.34;5112715;28;20440;-60
2023/01/24 11:45:09;;;;;;;25.02;22.48;;;;;;;1.97;84.32;103786.72;5094373;28;20413;-60
2023/01/24 11:47:43;;;;;;;;;;;;;;;2.08;84.48;103789.56;5111996;28;20051;-60
2023/01/24 11:50:25;;;;;;;24.45;21.92;;;;;;;2.02;83.80;103785.94;5112343;28;19907;-60
2023/01/24 11:53:08;;;;;;;23.80;21.23;;;;;;;2.04;83.73;103781.63;5112598;28;20058;-60
2023/01/24 11:55:50;;;;;;;24.33;21.73;;;;;;;2.06;84.08;103779.03;5111878;28;20027;-60
2023/01/24 11:58:18;;;;;;;24.83;22.42;;;;;;;1.98;82.14;103778.00;5094074;28;20131;-61
2023/01/24 12:01:00;;;;;;;25.45;22.85;;;;;;;1.98;83.44;103778.88;5112050;28;20024;-60
2023/01/24 12:03:28;;;;;;;25.02;22.58;;;;;;;2.00;83.14;103773.63;5094313;28;20031;-61